![]() |
EMODnet Physics ERDDAP
Easier access to scientific data |
log in|
Brought to you by EMODnet Physics |
| Dataset Title: | NDBC - Collection of dew point temperature (DEWT) TimeSeries - IN SITU MultiPointTimeSeriesObservation
|
| Institution: | NDBC (Dataset ID: TS_DEWT_NDBC) |
| Information: | Summary
| License
| FGDC
| ISO 19115
| Metadata
| Background
| Subset
| Data Access Form
| Make a graph
|
| Name | Last modified | Size | Description | |
|---|---|---|---|---|
| Parent Directory | - | - | ||
| CHII2_TS_DEWT_012006.nc | 27-Oct-2024 07:10 | 429600 | ||
| CHII2_TS_DEWT_012007.nc | 27-Oct-2024 07:10 | 429600 | ||
| CHII2_TS_DEWT_012008.nc | 27-Oct-2024 07:10 | 429598 | ||
| CHII2_TS_DEWT_012009.nc | 27-Oct-2024 07:10 | 429597 | ||
| CHII2_TS_DEWT_012010.nc | 27-Oct-2024 07:10 | 429590 | ||
| CHII2_TS_DEWT_012011.nc | 27-Oct-2024 07:10 | 429592 | ||
| CHII2_TS_DEWT_012012.nc | 27-Oct-2024 07:10 | 429595 | ||
| CHII2_TS_DEWT_012013.nc | 27-Oct-2024 07:10 | 429589 | ||
| CHII2_TS_DEWT_012015.nc | 27-Oct-2024 07:10 | 422858 | ||
| CHII2_TS_DEWT_012016.nc | 27-Oct-2024 07:10 | 426159 | ||
| CHII2_TS_DEWT_012017.nc | 27-Oct-2024 07:10 | 429589 | ||
| CHII2_TS_DEWT_012018.nc | 27-Oct-2024 07:10 | 429597 | ||
| CHII2_TS_DEWT_012019.nc | 27-Oct-2024 07:10 | 429599 | ||
| CHII2_TS_DEWT_012020.nc | 27-Oct-2024 07:10 | 429598 | ||
| CHII2_TS_DEWT_012021.nc | 27-Oct-2024 07:10 | 429597 | ||
| CHII2_TS_DEWT_012022.nc | 27-Oct-2024 07:10 | 429595 | ||
| CHII2_TS_DEWT_012023.nc | 27-Oct-2024 07:10 | 429590 | ||
| CHII2_TS_DEWT_012025.nc | 07-Feb-2025 10:38 | 429593 | ||
| CHII2_TS_DEWT_012026.nc | 02-Feb-2026 16:21 | 429611 | ||
| CHII2_TS_DEWT_022005.nc | 27-Oct-2024 07:11 | 425976 | ||
| CHII2_TS_DEWT_022007.nc | 27-Oct-2024 07:11 | 425962 | ||
| CHII2_TS_DEWT_022009.nc | 27-Oct-2024 07:11 | 423051 | ||
| CHII2_TS_DEWT_022010.nc | 27-Oct-2024 07:11 | 429262 | ||
| CHII2_TS_DEWT_022011.nc | 27-Oct-2024 07:11 | 429258 | ||
| CHII2_TS_DEWT_022012.nc | 27-Oct-2024 07:11 | 429248 | ||
| CHII2_TS_DEWT_022014.nc | 27-Oct-2024 07:11 | 429262 | ||
| CHII2_TS_DEWT_022015.nc | 27-Oct-2024 07:11 | 429248 | ||
| CHII2_TS_DEWT_022016.nc | 27-Oct-2024 07:11 | 429265 | ||
| CHII2_TS_DEWT_022017.nc | 27-Oct-2024 07:11 | 429255 | ||
| CHII2_TS_DEWT_022018.nc | 27-Oct-2024 07:11 | 428750 | ||
| CHII2_TS_DEWT_022019.nc | 27-Oct-2024 07:11 | 426202 | ||
| CHII2_TS_DEWT_022020.nc | 27-Oct-2024 07:11 | 424538 | ||
| CHII2_TS_DEWT_022021.nc | 27-Oct-2024 07:11 | 426110 | ||
| CHII2_TS_DEWT_022022.nc | 27-Oct-2024 07:11 | 429578 | ||
| CHII2_TS_DEWT_022023.nc | 27-Oct-2024 07:11 | 429594 | ||
| CHII2_TS_DEWT_022025.nc | 01-Mar-2025 05:17 | 429361 | ||
| CHII2_TS_DEWT_022026.nc | 01-Mar-2026 05:06 | 429596 | ||
| CHII2_TS_DEWT_032005.nc | 27-Oct-2024 07:12 | 429599 | ||
| CHII2_TS_DEWT_032006.nc | 27-Oct-2024 07:12 | 429594 | ||
| CHII2_TS_DEWT_032009.nc | 27-Oct-2024 07:12 | 429597 | ||
| CHII2_TS_DEWT_032010.nc | 27-Oct-2024 07:12 | 429607 | ||
| CHII2_TS_DEWT_032011.nc | 27-Oct-2024 07:12 | 426734 | ||
| CHII2_TS_DEWT_032012.nc | 27-Oct-2024 07:12 | 429260 | ||
| CHII2_TS_DEWT_032013.nc | 27-Oct-2024 07:12 | 429258 | ||
| CHII2_TS_DEWT_032014.nc | 27-Oct-2024 07:12 | 429258 | ||
| CHII2_TS_DEWT_032015.nc | 27-Oct-2024 07:12 | 429259 | ||
| CHII2_TS_DEWT_032016.nc | 27-Oct-2024 07:12 | 429258 | ||
| CHII2_TS_DEWT_032017.nc | 27-Oct-2024 07:12 | 424348 | ||
| CHII2_TS_DEWT_032018.nc | 27-Oct-2024 07:12 | 429260 | ||
| CHII2_TS_DEWT_032019.nc | 27-Oct-2024 07:12 | 429129 | ||
| CHII2_TS_DEWT_032020.nc | 27-Oct-2024 07:12 | 429282 | ||
| CHII2_TS_DEWT_032021.nc | 27-Oct-2024 07:12 | 426346 | ||
| CHII2_TS_DEWT_032023.nc | 27-Oct-2024 07:12 | 429598 | ||
| CHII2_TS_DEWT_032025.nc | 02-Apr-2025 04:15 | 429555 | ||
| CHII2_TS_DEWT_032026.nc | 22-Mar-2026 06:28 | 429493 | ||
| CHII2_TS_DEWT_042005.nc | 27-Oct-2024 07:12 | 429591 | ||
| CHII2_TS_DEWT_042006.nc | 27-Oct-2024 07:12 | 428116 | ||
| CHII2_TS_DEWT_042007.nc | 27-Oct-2024 07:12 | 429596 | ||
| CHII2_TS_DEWT_042009.nc | 27-Oct-2024 07:12 | 429598 | ||
| CHII2_TS_DEWT_042010.nc | 27-Oct-2024 07:13 | 427926 | ||
| CHII2_TS_DEWT_042011.nc | 27-Oct-2024 07:13 | 419253 | ||
| CHII2_TS_DEWT_042012.nc | 27-Oct-2024 07:13 | 428766 | ||
| CHII2_TS_DEWT_042013.nc | 27-Oct-2024 07:13 | 429674 | ||
| CHII2_TS_DEWT_042014.nc | 27-Oct-2024 07:13 | 429677 | ||
| CHII2_TS_DEWT_042015.nc | 27-Oct-2024 07:13 | 429578 | ||
| CHII2_TS_DEWT_042016.nc | 27-Oct-2024 07:13 | 429659 | ||
| CHII2_TS_DEWT_042017.nc | 27-Oct-2024 07:13 | 429672 | ||
| CHII2_TS_DEWT_042018.nc | 27-Oct-2024 07:13 | 429667 | ||
| CHII2_TS_DEWT_042019.nc | 27-Oct-2024 07:13 | 429670 | ||
| CHII2_TS_DEWT_042020.nc | 27-Oct-2024 07:13 | 429738 | ||
| CHII2_TS_DEWT_042021.nc | 27-Oct-2024 07:13 | 429682 | ||
| CHII2_TS_DEWT_042022.nc | 27-Oct-2024 07:13 | 429690 | ||
| CHII2_TS_DEWT_042023.nc | 27-Oct-2024 07:13 | 429689 | ||
| CHII2_TS_DEWT_042025.nc | 01-May-2025 05:06 | 427243 | ||
| CHII2_TS_DEWT_052005.nc | 27-Oct-2024 07:13 | 429655 | ||
| CHII2_TS_DEWT_052006.nc | 27-Oct-2024 07:13 | 429690 | ||
| CHII2_TS_DEWT_052007.nc | 27-Oct-2024 07:13 | 429681 | ||
| CHII2_TS_DEWT_052009.nc | 27-Oct-2024 07:13 | 429679 | ||
| CHII2_TS_DEWT_052010.nc | 27-Oct-2024 07:13 | 429685 | ||
| CHII2_TS_DEWT_052011.nc | 27-Oct-2024 07:13 | 429679 | ||
| CHII2_TS_DEWT_052012.nc | 27-Oct-2024 07:14 | 429677 | ||
| CHII2_TS_DEWT_052013.nc | 27-Oct-2024 07:14 | 429684 | ||
| CHII2_TS_DEWT_052014.nc | 27-Oct-2024 07:14 | 429692 | ||
| CHII2_TS_DEWT_052015.nc | 27-Oct-2024 07:14 | 429679 | ||
| CHII2_TS_DEWT_052016.nc | 27-Oct-2024 07:14 | 429684 | ||
| CHII2_TS_DEWT_052017.nc | 27-Oct-2024 07:14 | 429685 | ||
| CHII2_TS_DEWT_052018.nc | 27-Oct-2024 07:14 | 429986 | ||
| CHII2_TS_DEWT_052019.nc | 27-Oct-2024 07:14 | 429899 | ||
| CHII2_TS_DEWT_052020.nc | 27-Oct-2024 07:14 | 429913 | ||
| CHII2_TS_DEWT_052021.nc | 27-Oct-2024 07:14 | 429890 | ||
| CHII2_TS_DEWT_052022.nc | 27-Oct-2024 07:14 | 429902 | ||
| CHII2_TS_DEWT_052023.nc | 27-Oct-2024 07:14 | 429902 | ||
| CHII2_TS_DEWT_052025.nc | 01-Jun-2025 06:44 | 419202 | ||
| CHII2_TS_DEWT_062005.nc | 27-Oct-2024 07:14 | 1212654 | ||
| CHII2_TS_DEWT_062006.nc | 27-Oct-2024 07:14 | 605429 | ||
| CHII2_TS_DEWT_062007.nc | 27-Oct-2024 07:14 | 429902 | ||
| CHII2_TS_DEWT_062008.nc | 27-Oct-2024 07:14 | 1265859 | ||
| CHII2_TS_DEWT_062009.nc | 27-Oct-2024 07:14 | 1262424 | ||
| CHII2_TS_DEWT_062010.nc | 27-Oct-2024 07:14 | 1264801 | ||
| CHII2_TS_DEWT_062011.nc | 27-Oct-2024 07:14 | 418870 | ||
| CHII2_TS_DEWT_062012.nc | 27-Oct-2024 07:15 | 428587 | ||
| CHII2_TS_DEWT_062013.nc | 27-Oct-2024 07:15 | 428661 | ||
| CHII2_TS_DEWT_062014.nc | 27-Oct-2024 07:15 | 428957 | ||
| CHII2_TS_DEWT_062015.nc | 27-Oct-2024 07:15 | 428669 | ||
| CHII2_TS_DEWT_062016.nc | 27-Oct-2024 07:15 | 428676 | ||
| CHII2_TS_DEWT_062017.nc | 27-Oct-2024 07:15 | 428673 | ||
| CHII2_TS_DEWT_062018.nc | 27-Oct-2024 07:15 | 429010 | ||
| CHII2_TS_DEWT_062019.nc | 27-Oct-2024 07:15 | 428669 | ||
| CHII2_TS_DEWT_062020.nc | 27-Oct-2024 07:15 | 425888 | ||
| CHII2_TS_DEWT_062021.nc | 27-Oct-2024 07:15 | 428680 | ||
| CHII2_TS_DEWT_062022.nc | 27-Oct-2024 07:15 | 429031 | ||
| CHII2_TS_DEWT_062023.nc | 27-Oct-2024 07:15 | 428685 | ||
| CHII2_TS_DEWT_062025.nc | 01-Jul-2025 06:10 | 428685 | ||
| CHII2_TS_DEWT_072005.nc | 27-Oct-2024 07:15 | 428668 | ||
| CHII2_TS_DEWT_072006.nc | 27-Oct-2024 07:15 | 428992 | ||
| CHII2_TS_DEWT_072007.nc | 27-Oct-2024 07:15 | 428501 | ||
| CHII2_TS_DEWT_072008.nc | 27-Oct-2024 07:15 | 428494 | ||
| CHII2_TS_DEWT_072009.nc | 27-Oct-2024 07:15 | 428672 | ||
| CHII2_TS_DEWT_072010.nc | 27-Oct-2024 07:16 | 429030 | ||
| CHII2_TS_DEWT_072011.nc | 27-Oct-2024 07:16 | 426935 | ||
| CHII2_TS_DEWT_072012.nc | 27-Oct-2024 07:16 | 428684 | ||
| CHII2_TS_DEWT_072014.nc | 27-Oct-2024 07:16 | 429028 | ||
| CHII2_TS_DEWT_072015.nc | 27-Oct-2024 07:16 | 428685 | ||
| CHII2_TS_DEWT_072016.nc | 27-Oct-2024 07:16 | 428682 | ||
| CHII2_TS_DEWT_072017.nc | 27-Oct-2024 07:16 | 428681 | ||
| CHII2_TS_DEWT_072018.nc | 27-Oct-2024 07:16 | 429218 | ||
| CHII2_TS_DEWT_072019.nc | 27-Oct-2024 07:16 | 428858 | ||
| CHII2_TS_DEWT_072020.nc | 27-Oct-2024 07:16 | 429224 | ||
| CHII2_TS_DEWT_072021.nc | 27-Oct-2024 07:16 | 429223 | ||
| CHII2_TS_DEWT_072022.nc | 27-Oct-2024 07:16 | 428875 | ||
| CHII2_TS_DEWT_072023.nc | 27-Oct-2024 07:16 | 429225 | ||
| CHII2_TS_DEWT_072025.nc | 01-Aug-2025 06:21 | 917166 | ||
| CHII2_TS_DEWT_082005.nc | 27-Oct-2024 07:16 | 596079 | ||
| CHII2_TS_DEWT_082007.nc | 27-Oct-2024 07:16 | 429217 | ||
| CHII2_TS_DEWT_082008.nc | 27-Oct-2024 07:16 | 1027589 | ||
| CHII2_TS_DEWT_082009.nc | 27-Oct-2024 07:16 | 1028572 | ||
| CHII2_TS_DEWT_082010.nc | 27-Oct-2024 07:16 | 1028053 | ||
| CHII2_TS_DEWT_082011.nc | 27-Oct-2024 07:17 | 428002 | ||
| CHII2_TS_DEWT_082012.nc | 27-Oct-2024 07:17 | 429671 | ||
| CHII2_TS_DEWT_082013.nc | 27-Oct-2024 07:17 | 429674 | ||
| CHII2_TS_DEWT_082014.nc | 27-Oct-2024 07:17 | 429660 | ||
| CHII2_TS_DEWT_082015.nc | 27-Oct-2024 07:17 | 429552 | ||
| CHII2_TS_DEWT_082016.nc | 27-Oct-2024 07:17 | 429674 | ||
| CHII2_TS_DEWT_082017.nc | 27-Oct-2024 07:17 | 429653 | ||
| CHII2_TS_DEWT_082018.nc | 27-Oct-2024 07:17 | 429673 | ||
| CHII2_TS_DEWT_082019.nc | 27-Oct-2024 07:17 | 429661 | ||
| CHII2_TS_DEWT_082020.nc | 27-Oct-2024 07:17 | 429687 | ||
| CHII2_TS_DEWT_082021.nc | 27-Oct-2024 07:17 | 429679 | ||
| CHII2_TS_DEWT_082022.nc | 27-Oct-2024 07:17 | 429677 | ||
| CHII2_TS_DEWT_082023.nc | 27-Oct-2024 07:17 | 429688 | ||
| CHII2_TS_DEWT_082025.nc | 01-Sep-2025 06:01 | 429690 | ||
| CHII2_TS_DEWT_092005.nc | 27-Oct-2024 07:17 | 429665 | ||
| CHII2_TS_DEWT_092007.nc | 27-Oct-2024 07:17 | 424333 | ||
| CHII2_TS_DEWT_092008.nc | 27-Oct-2024 07:17 | 429690 | ||
| CHII2_TS_DEWT_092009.nc | 27-Oct-2024 07:17 | 429683 | ||
| CHII2_TS_DEWT_092010.nc | 27-Oct-2024 07:17 | 429685 | ||
| CHII2_TS_DEWT_092011.nc | 27-Oct-2024 07:17 | 424748 | ||
| CHII2_TS_DEWT_092012.nc | 27-Oct-2024 07:18 | 429678 | ||
| CHII2_TS_DEWT_092013.nc | 27-Oct-2024 07:18 | 429679 | ||
| CHII2_TS_DEWT_092014.nc | 27-Oct-2024 07:18 | 429686 | ||
| CHII2_TS_DEWT_092015.nc | 27-Oct-2024 07:18 | 429679 | ||
| CHII2_TS_DEWT_092016.nc | 27-Oct-2024 07:18 | 429679 | ||
| CHII2_TS_DEWT_092017.nc | 27-Oct-2024 07:18 | 429685 | ||
| CHII2_TS_DEWT_092018.nc | 27-Oct-2024 07:18 | 429899 | ||
| CHII2_TS_DEWT_092019.nc | 27-Oct-2024 07:18 | 429886 | ||
| CHII2_TS_DEWT_092020.nc | 27-Oct-2024 07:18 | 429861 | ||
| CHII2_TS_DEWT_092021.nc | 27-Oct-2024 07:18 | 429908 | ||
| CHII2_TS_DEWT_092022.nc | 27-Oct-2024 07:18 | 429907 | ||
| CHII2_TS_DEWT_092023.nc | 27-Oct-2024 07:18 | 429899 | ||
| CHII2_TS_DEWT_092025.nc | 01-Oct-2025 05:51 | 1143221 | ||
| CHII2_TS_DEWT_102005.nc | 27-Oct-2024 07:18 | 599167 | ||
| CHII2_TS_DEWT_102006.nc | 27-Oct-2024 07:18 | 429605 | ||
| CHII2_TS_DEWT_102007.nc | 27-Oct-2024 07:18 | 1008217 | ||
| CHII2_TS_DEWT_102008.nc | 27-Oct-2024 07:18 | 1264173 | ||
| CHII2_TS_DEWT_102009.nc | 27-Oct-2024 07:18 | 1270039 | ||
| CHII2_TS_DEWT_102010.nc | 27-Oct-2024 07:18 | 425937 | ||
| CHII2_TS_DEWT_102011.nc | 27-Oct-2024 07:18 | 429333 | ||
| CHII2_TS_DEWT_102012.nc | 27-Oct-2024 07:18 | 429318 | ||
| CHII2_TS_DEWT_102013.nc | 27-Oct-2024 07:18 | 429342 | ||
| CHII2_TS_DEWT_102014.nc | 27-Oct-2024 07:18 | 429332 | ||
| CHII2_TS_DEWT_102015.nc | 27-Oct-2024 07:19 | 429272 | ||
| CHII2_TS_DEWT_102016.nc | 27-Oct-2024 07:19 | 429346 | ||
| CHII2_TS_DEWT_102017.nc | 27-Oct-2024 07:19 | 422829 | ||
| CHII2_TS_DEWT_102018.nc | 27-Oct-2024 07:19 | 429341 | ||
| CHII2_TS_DEWT_102019.nc | 27-Oct-2024 07:19 | 429353 | ||
| CHII2_TS_DEWT_102020.nc | 27-Oct-2024 07:19 | 429361 | ||
| CHII2_TS_DEWT_102021.nc | 27-Oct-2024 07:19 | 429357 | ||
| CHII2_TS_DEWT_102022.nc | 27-Oct-2024 07:19 | 429310 | ||
| CHII2_TS_DEWT_102023.nc | 27-Oct-2024 07:19 | 429357 | ||
| CHII2_TS_DEWT_102025.nc | 01-Nov-2025 06:11 | 429360 | ||
| CHII2_TS_DEWT_112005.nc | 27-Oct-2024 07:19 | 429359 | ||
| CHII2_TS_DEWT_112006.nc | 27-Oct-2024 07:19 | 429365 | ||
| CHII2_TS_DEWT_112007.nc | 27-Oct-2024 07:19 | 429353 | ||
| CHII2_TS_DEWT_112008.nc | 27-Oct-2024 07:19 | 427637 | ||
| CHII2_TS_DEWT_112009.nc | 27-Oct-2024 07:19 | 429364 | ||
| CHII2_TS_DEWT_112010.nc | 27-Oct-2024 07:19 | 429359 | ||
| CHII2_TS_DEWT_112011.nc | 27-Oct-2024 07:19 | 429357 | ||
| CHII2_TS_DEWT_112012.nc | 27-Oct-2024 07:19 | 429358 | ||
| CHII2_TS_DEWT_112013.nc | 27-Oct-2024 07:20 | 429357 | ||
| CHII2_TS_DEWT_112014.nc | 27-Oct-2024 07:20 | 429351 | ||
| CHII2_TS_DEWT_112015.nc | 27-Oct-2024 07:20 | 429561 | ||
| CHII2_TS_DEWT_112016.nc | 27-Oct-2024 07:20 | 427879 | ||
| CHII2_TS_DEWT_112017.nc | 27-Oct-2024 07:20 | 429561 | ||
| CHII2_TS_DEWT_112018.nc | 27-Oct-2024 07:20 | 421048 | ||
| CHII2_TS_DEWT_112019.nc | 27-Oct-2024 07:20 | 429565 | ||
| CHII2_TS_DEWT_112020.nc | 27-Oct-2024 07:20 | 429560 | ||
| CHII2_TS_DEWT_112021.nc | 27-Oct-2024 07:20 | 429564 | ||
| CHII2_TS_DEWT_112022.nc | 27-Oct-2024 07:20 | 994753 | ||
| CHII2_TS_DEWT_112023.nc | 27-Oct-2024 07:20 | 589950 | ||
| CHII2_TS_DEWT_112024.nc | 17-Jan-2025 16:49 | 429558 | ||
| CHII2_TS_DEWT_112025.nc | 01-Dec-2025 10:11 | 1115306 | ||
| CHII2_TS_DEWT_122005.nc | 27-Oct-2024 07:20 | 1113547 | ||
| CHII2_TS_DEWT_122006.nc | 27-Oct-2024 07:20 | 1114624 | ||
| CHII2_TS_DEWT_122007.nc | 27-Oct-2024 07:20 | 426129 | ||
| CHII2_TS_DEWT_122008.nc | 27-Oct-2024 07:20 | 429674 | ||
| CHII2_TS_DEWT_122009.nc | 27-Oct-2024 07:20 | 429667 | ||
| CHII2_TS_DEWT_122010.nc | 27-Oct-2024 07:20 | 429671 | ||
| CHII2_TS_DEWT_122011.nc | 27-Oct-2024 07:20 | 429670 | ||
| CHII2_TS_DEWT_122012.nc | 27-Oct-2024 07:21 | 429671 | ||
| CHII2_TS_DEWT_122013.nc | 27-Oct-2024 07:21 | 429652 | ||
| CHII2_TS_DEWT_122014.nc | 27-Oct-2024 07:21 | 425156 | ||
| CHII2_TS_DEWT_122015.nc | 27-Oct-2024 07:21 | 429637 | ||
| CHII2_TS_DEWT_122016.nc | 27-Oct-2024 07:21 | 429685 | ||
| CHII2_TS_DEWT_122017.nc | 27-Oct-2024 07:21 | 429679 | ||
| CHII2_TS_DEWT_122018.nc | 27-Oct-2024 07:21 | 429689 | ||
| CHII2_TS_DEWT_122019.nc | 27-Oct-2024 07:21 | 427656 | ||
| CHII2_TS_DEWT_122020.nc | 27-Oct-2024 07:21 | 429678 | ||
| CHII2_TS_DEWT_122021.nc | 27-Oct-2024 07:21 | 429683 | ||
| CHII2_TS_DEWT_122022.nc | 27-Oct-2024 07:21 | 429664 | ||
| CHII2_TS_DEWT_122023.nc | 23-Dec-2024 04:14 | 429679 | ||
| CHII2_TS_DEWT_122024.nc | 23-Jan-2025 03:20 | 429692 | ||
| CHII2_TS_DEWT_122025.nc | 01-Jan-2026 04:51 | 429682 | ||